Time;durP1;ratioP1;P1;durP2;ratioP2;P2;SDS_P1;SDS_P2;PMS_P1;PMS_P2;Temp;Humidity;BMP_temperature;BMP_pressure;BME280_temperature;BME280_humidity;BME280_pressure;Samples;Min_cycle;Max_cycle;Signal;HPM_P1;HPM_P2
2023/05/15 00:01:45;;;;;;;3.58;2.38;;;;;;;;;;5027270;28;20049;-77
2023/05/15 00:04:11;;;;;;;5.88;2.60;;;;;;;;;;5029525;28;20552;-77
2023/05/15 00:06:37;;;;;;;3.92;2.42;;;;;;;;;;5033299;28;20025;-77
2023/05/15 00:09:03;;;;;;;5.03;2.88;;;;;;;;;;5028127;28;20029;-77
2023/05/15 00:11:29;;;;;;;4.40;2.60;;;;;;;;;;5027909;28;20022;-77
2023/05/15 00:13:55;;;;;;;4.20;2.78;;;;;;;;;;5026446;28;20037;-76
2023/05/15 00:16:21;;;;;;;4.15;2.58;;;;;;;;;;5029086;28;20091;-77
2023/05/15 00:18:47;;;;;;;4.15;2.25;;;;;;;;;;5029985;28;20026;-77
2023/05/15 00:21:13;;;;;;;4.80;2.47;;;;;;;;;;5029311;28;20278;-76
2023/05/15 00:23:40;;;;;;;6.28;3.35;;;;;;;;;;5023256;28;20025;-76
2023/05/15 00:26:06;;;;;;;4.22;2.60;;;;;;;;;;5022675;28;20017;-76
2023/05/15 00:28:31;;;;;;;3.35;2.45;;;;;;;;;;5028559;28;20030;-77
2023/05/15 00:30:57;;;;;;;5.72;2.88;;;;;;;;;;5027382;28;20038;-77
2023/05/15 00:33:23;;;;;;;4.03;2.47;;;;;;;;;;5025781;28;20400;-77
2023/05/15 00:35:50;;;;;;;3.58;2.35;;;;;;;;;;5027746;28;20029;-76
2023/05/15 00:38:15;;;;;;;5.00;2.15;;;;;;;;;;5026900;28;20017;-77
2023/05/15 00:40:43;;;;;;;4.13;2.38;;;;;;;;;;5026836;28;20530;-76
2023/05/15 00:43:11;;;;;;;4.47;2.55;;;;;;;;;;5026036;28;20030;-77
2023/05/15 00:45:40;;;;;;;3.78;2.45;;;;;;;;;;5025828;28;20032;-77
2023/05/15 00:48:07;;;;;;;3.10;2.30;;;;;;;;;;5027454;28;20037;-76
2023/05/15 00:50:33;;;;;;;3.90;2.58;;;;;;;;;;5026738;28;20490;-76
2023/05/15 00:53:00;;;;;;;5.30;2.70;;;;;;;;;;5028968;28;20029;-77
2023/05/15 00:55:29;;;;;;;7.10;2.65;;;;;;;;;;5010050;28;20033;-76
2023/05/15 00:57:55;;;;;;;4.15;2.60;;;;;;;;;;5028694;28;20095;-76
2023/05/15 01:00:22;;;;;;;4.13;2.13;;;;;;;;;;5025163;28;20037;-77
2023/05/15 01:02:47;;;;;;;3.58;2.53;;;;;;;;;;5015010;28;20038;-76
2023/05/15 01:05:13;;;;;;;3.45;2.17;;;;;;;;;;5026942;28;20419;-76
2023/05/15 01:07:48;;;;;;;3.17;2.17;;;;;;;;;;5028818;28;20624;-77
2023/05/15 01:10:15;;;;;;;5.47;2.70;;;;;;;;;;5025506;28;20033;-76
2023/05/15 01:12:41;;;;;;;4.43;2.35;;;;;;;;;;5026287;28;20035;-76
2023/05/15 01:15:08;;;;;;;3.22;2.50;;;;;;;;;;5025718;28;20387;-76
2023/05/15 01:17:33;;;;;;;4.13;2.40;;;;;;;;;;5041411;28;20029;-76
2023/05/15 01:20:01;;;;;;;3.00;2.35;;;;;;;;;;5024761;28;20033;-76
2023/05/15 01:22:38;;;;;;;6.25;2.80;;;;;;;;;;5025212;28;20026;-75
2023/05/15 01:25:25;;;;;;;3.88;2.33;;;;;;;;;;5028110;28;20032;-76
2023/05/15 01:27:52;;;;;;;4.38;2.70;;;;;;;;;;5032242;28;20029;-76
2023/05/15 01:30:22;;;;;;;3.53;2.40;;;;;;;;;;5026667;28;20032;-77
2023/05/15 01:33:06;;;;;;;3.50;2.25;;;;;;;;;;5025976;28;20041;-76
2023/05/15 01:35:43;;;;;;;4.22;2.80;;;;;;;;;;5027613;28;20025;-77
2023/05/15 01:38:15;;;;;;;2.67;2.17;;;;;;;;;;5025083;28;20507;-76
2023/05/15 01:40:44;;;;;;;2.50;1.88;;;;;;;;;;5027521;28;20056;-76
2023/05/15 01:43:11;;;;;;;3.33;2.72;;;;;;;;;;5025736;28;20029;-76
2023/05/15 01:45:39;;;;;;;2.92;2.30;;;;;;;;;;5026347;28;20029;-76
2023/05/15 01:48:07;;;;;;;2.72;2.33;;;;;;;;;;5026901;28;20056;-77
2023/05/15 01:50:34;;;;;;;4.63;2.50;;;;;;;;;;5026911;28;20074;-76
2023/05/15 01:53:01;;;;;;;5.63;2.55;;;;;;;;;;5025805;28;20018;-76
2023/05/15 01:55:28;;;;;;;3.70;2.65;;;;;;;;;;5026898;28;20480;-76
2023/05/15 01:57:55;;;;;;;4.53;2.65;;;;;;;;;;5025905;28;20041;-76
2023/05/15 02:00:21;;;;;;;3.35;2.28;;;;;;;;;;5026586;28;20041;-76
2023/05/15 02:02:47;;;;;;;3.25;2.13;;;;;;;;;;5024309;28;20029;-76
2023/05/15 02:05:14;;;;;;;9.40;3.00;;;;;;;;;;5033828;28;20033;-76
2023/05/15 02:07:42;;;;;;;3.13;2.20;;;;;;;;;;5026207;28;20071;-76
2023/05/15 02:10:08;;;;;;;4.65;2.88;;;;;;;;;;5016565;28;20535;-76
2023/05/15 02:12:34;;;;;;;3.67;2.50;;;;;;;;;;5024442;28;20045;-76
2023/05/15 02:15:01;;;;;;;4.75;2.67;;;;;;;;;;5026031;28;20423;-76
2023/05/15 02:17:28;;;;;;;4.50;2.35;;;;;;;;;;5025302;28;20108;-76
2023/05/15 02:19:54;;;;;;;3.25;2.25;;;;;;;;;;5025929;28;20472;-75
2023/05/15 02:22:20;;;;;;;5.57;2.40;;;;;;;;;;5026004;28;20053;-76
2023/05/15 02:24:46;;;;;;;5.53;2.65;;;;;;;;;;5025544;28;20108;-76
2023/05/15 02:27:15;;;;;;;5.95;2.53;;;;;;;;;;5026101;28;20025;-76
2023/05/15 02:29:53;;;;;;;3.38;2.28;;;;;;;;;;5025099;28;20026;-77
2023/05/15 02:32:22;;;;;;;5.82;2.35;;;;;;;;;;5025751;28;20104;-76
2023/05/15 02:35:05;;;;;;;3.97;2.53;;;;;;;;;;5026094;28;20071;-76
2023/05/15 02:37:32;;;;;;;3.78;2.30;;;;;;;;;;5026169;28;20544;-76
2023/05/15 02:40:00;;;;;;;5.10;2.63;;;;;;;;;;5010236;28;20112;-76
2023/05/15 02:42:27;;;;;;;3.17;2.22;;;;;;;;;;5023167;28;20037;-76
2023/05/15 02:44:53;;;;;;;2.97;2.50;;;;;;;;;;5024860;28;20037;-77
2023/05/15 02:47:22;;;;;;;3.53;2.42;;;;;;;;;;5023720;28;20086;-76
2023/05/15 02:49:49;;;;;;;3.80;2.47;;;;;;;;;;5025092;28;20448;-76
2023/05/15 02:52:15;;;;;;;4.07;2.40;;;;;;;;;;5012640;28;20029;-76
2023/05/15 02:54:41;;;;;;;4.13;2.55;;;;;;;;;;5024568;28;20026;-76
2023/05/15 02:57:07;;;;;;;4.97;2.40;;;;;;;;;;5023668;28;20040;-76
2023/05/15 02:59:33;;;;;;;4.28;2.50;;;;;;;;;;5026695;28;20013;-76
2023/05/15 03:01:59;;;;;;;2.72;2.00;;;;;;;;;;5023287;28;20034;-76
2023/05/15 03:04:25;;;;;;;3.63;2.30;;;;;;;;;;5025260;28;20033;-76
2023/05/15 03:06:51;;;;;;;3.50;2.50;;;;;;;;;;5020010;28;20435;-76
2023/05/15 03:09:17;;;;;;;4.68;2.72;;;;;;;;;;5009445;28;20380;-75
2023/05/15 03:11:43;;;;;;;3.40;2.45;;;;;;;;;;5027150;28;20468;-77
2023/05/15 03:14:09;;;;;;;3.92;2.50;;;;;;;;;;5024299;28;20084;-76
2023/05/15 03:16:37;;;;;;;4.35;2.55;;;;;;;;;;5027345;28;20025;-76
2023/05/15 03:19:04;;;;;;;3.30;2.38;;;;;;;;;;5023986;28;20037;-77
2023/05/15 03:21:30;;;;;;;3.35;2.50;;;;;;;;;;5024403;28;20026;-77
2023/05/15 03:23:56;;;;;;;3.88;2.40;;;;;;;;;;5025633;28;20040;-76
2023/05/15 03:26:22;;;;;;;3.63;2.25;;;;;;;;;;5025470;28;20455;-82
2023/05/15 03:28:51;;;;;;;4.00;2.45;;;;;;;;;;5025746;28;20021;-83
2023/05/15 03:31:17;;;;;;;3.45;2.15;;;;;;;;;;5020616;28;20029;-77
2023/05/15 03:33:44;;;;;;;2.47;1.88;;;;;;;;;;5032678;28;20033;-77
2023/05/15 03:36:11;;;;;;;5.00;2.03;;;;;;;;;;5019293;28;20041;-78
2023/05/15 03:38:37;;;;;;;3.20;2.20;;;;;;;;;;5026578;28;20087;-77
2023/05/15 03:41:02;;;;;;;3.13;2.30;;;;;;;;;;5023735;28;20451;-77
2023/05/15 03:43:28;;;;;;;4.50;2.50;;;;;;;;;;5023597;28;20038;-78
2023/05/15 03:45:55;;;;;;;5.82;2.45;;;;;;;;;;5025832;28;20037;-78
2023/05/15 03:48:20;;;;;;;3.67;2.10;;;;;;;;;;5026465;28;20010;-77
2023/05/15 03:50:46;;;;;;;4.43;3.05;;;;;;;;;;5025724;28;20255;-77
2023/05/15 03:53:12;;;;;;;3.90;2.05;;;;;;;;;;5025605;28;20036;-78
2023/05/15 03:55:38;;;;;;;4.13;2.38;;;;;;;;;;5029251;28;20493;-77
2023/05/15 03:58:04;;;;;;;3.47;2.30;;;;;;;;;;5026122;28;20120;-78
2023/05/15 04:00:30;;;;;;;4.30;2.67;;;;;;;;;;5026697;28;20037;-77
2023/05/15 04:02:56;;;;;;;3.17;2.15;;;;;;;;;;5024879;28;20563;-77
2023/05/15 04:05:22;;;;;;;4.95;2.47;;;;;;;;;;5031855;28;20041;-77
2023/05/15 04:07:48;;;;;;;3.53;2.38;;;;;;;;;;5027563;28;20396;-79
2023/05/15 04:10:14;;;;;;;3.20;2.63;;;;;;;;;;5025810;28;20087;-77
2023/05/15 04:12:40;;;;;;;5.68;2.20;;;;;;;;;;5004758;28;20032;-77
2023/05/15 04:15:32;;;;;;;3.05;2.15;;;;;;;;;;5026175;28;20070;-77
2023/05/15 04:17:58;;;;;;;3.38;2.10;;;;;;;;;;5020602;28;20129;-77
2023/05/15 04:20:24;;;;;;;2.97;2.08;;;;;;;;;;5028146;28;20086;-77
2023/05/15 04:22:51;;;;;;;3.63;1.98;;;;;;;;;;5029104;28;20029;-78
2023/05/15 04:25:17;;;;;;;3.83;2.30;;;;;;;;;;5029459;28;20060;-77
2023/05/15 04:27:44;;;;;;;2.50;1.88;;;;;;;;;;5029101;28;20104;-78
2023/05/15 04:30:10;;;;;;;2.40;1.67;;;;;;;;;;5029742;28;20033;-77
2023/05/15 04:32:37;;;;;;;4.15;2.33;;;;;;;;;;5029163;28;20029;-77
2023/05/15 04:35:08;;;;;;;3.28;1.90;;;;;;;;;;5029532;28;20033;-78
2023/05/15 04:37:35;;;;;;;4.50;2.55;;;;;;;;;;5027146;28;20025;-77
2023/05/15 04:40:01;;;;;;;4.30;2.20;;;;;;;;;;5029418;28;20034;-77
2023/05/15 04:42:27;;;;;;;3.38;1.98;;;;;;;;;;5027684;28;20115;-77
2023/05/15 04:44:53;;;;;;;3.70;2.28;;;;;;;;;;5029493;28;20018;-77
2023/05/15 04:47:19;;;;;;;3.28;1.95;;;;;;;;;;5025578;28;20025;-79
2023/05/15 04:49:46;;;;;;;3.25;2.47;;;;;;;;;;5036337;28;20070;-78
2023/05/15 04:52:12;;;;;;;3.13;1.77;;;;;;;;;;5027164;28;20021;-78
2023/05/15 04:54:38;;;;;;;4.03;2.10;;;;;;;;;;5029923;28;20025;-78
2023/05/15 04:57:05;;;;;;;3.65;2.58;;;;;;;;;;5027633;28;20413;-79
2023/05/15 04:59:31;;;;;;;3.17;2.22;;;;;;;;;;5026864;28;20450;-78
2023/05/15 05:01:57;;;;;;;3.88;2.05;;;;;;;;;;5028441;28;20026;-77
2023/05/15 05:04:23;;;;;;;2.95;1.98;;;;;;;;;;5013329;28;20075;-76
2023/05/15 05:06:49;;;;;;;2.33;1.98;;;;;;;;;;5038589;28;20037;-76
2023/05/15 05:09:15;;;;;;;3.28;2.22;;;;;;;;;;5026977;28;20036;-76
2023/05/15 05:11:42;;;;;;;2.03;1.73;;;;;;;;;;5028930;28;20021;-76
2023/05/15 05:14:08;;;;;;;2.67;2.03;;;;;;;;;;5027998;28;20029;-76
2023/05/15 05:16:34;;;;;;;3.30;2.10;;;;;;;;;;5028263;28;20075;-76
2023/05/15 05:19:01;;;;;;;2.75;2.15;;;;;;;;;;5027925;28;20025;-77
2023/05/15 05:21:26;;;;;;;2.95;2.25;;;;;;;;;;5024185;28;20025;-79
2023/05/15 05:23:52;;;;;;;2.22;1.83;;;;;;;;;;5029528;28;20037;-78
2023/05/15 05:26:18;;;;;;;2.65;2.00;;;;;;;;;;5036646;28;20046;-74
2023/05/15 05:28:44;;;;;;;3.10;1.80;;;;;;;;;;5025812;28;20028;-78
2023/05/15 05:31:10;;;;;;;2.42;1.90;;;;;;;;;;5037637;28;20036;-78
2023/05/15 05:33:36;;;;;;;3.00;1.98;;;;;;;;;;5030314;28;20045;-78
2023/05/15 05:36:02;;;;;;;2.05;1.83;;;;;;;;;;5028441;28;20029;-75
2023/05/15 05:38:28;;;;;;;2.95;1.88;;;;;;;;;;5028711;28;20124;-79
2023/05/15 05:40:54;;;;;;;3.15;2.05;;;;;;;;;;5027614;28;20622;-78
2023/05/15 05:43:20;;;;;;;2.42;2.08;;;;;;;;;;5032781;28;20614;-78
2023/05/15 05:45:47;;;;;;;2.83;2.10;;;;;;;;;;5029254;28;20087;-80
2023/05/15 05:48:13;;;;;;;3.00;2.00;;;;;;;;;;5028454;28;20072;-81
2023/05/15 05:50:39;;;;;;;3.35;2.13;;;;;;;;;;5027987;28;20415;-81
2023/05/15 05:53:05;;;;;;;2.70;2.05;;;;;;;;;;5039427;28;20054;-79
2023/05/15 05:55:31;;;;;;;3.85;1.83;;;;;;;;;;5028001;28;20156;-75
2023/05/15 05:57:57;;;;;;;2.72;1.95;;;;;;;;;;5023955;28;20162;-75
2023/05/15 06:00:26;;;;;;;4.82;1.80;;;;;;;;;;5026035;28;20034;-77
2023/05/15 06:02:57;;;;;;;3.00;2.17;;;;;;;;;;5031444;28;20080;-77
2023/05/15 06:05:26;;;;;;;2.45;1.85;;;;;;;;;;5026488;28;20440;-74
2023/05/15 06:07:52;;;;;;;2.53;1.77;;;;;;;;;;5006286;28;20489;-75
2023/05/15 06:10:19;;;;;;;5.45;2.20;;;;;;;;;;5020618;28;20075;-77
2023/05/15 06:12:45;;;;;;;2.78;2.03;;;;;;;;;;5020782;28;20095;-76
2023/05/15 06:15:11;;;;;;;3.45;1.83;;;;;;;;;;5022707;28;20026;-76
2023/05/15 06:17:37;;;;;;;2.80;1.88;;;;;;;;;;5023030;28;20041;-76
2023/05/15 06:20:10;;;;;;;3.53;2.08;;;;;;;;;;5025976;28;20120;-77
2023/05/15 06:22:36;;;;;;;3.83;2.30;;;;;;;;;;5025160;28;20032;-77
2023/05/15 06:25:03;;;;;;;2.65;2.20;;;;;;;;;;5006215;28;20018;-77
2023/05/15 06:27:29;;;;;;;3.90;2.22;;;;;;;;;;5022714;28;20091;-77
2023/05/15 06:29:59;;;;;;;2.67;1.67;;;;;;;;;;5025232;28;20017;-77
2023/05/15 06:32:25;;;;;;;2.55;2.17;;;;;;;;;;5021648;28;20400;-77
2023/05/15 06:34:51;;;;;;;3.53;1.80;;;;;;;;;;5002056;28;20132;-76
2023/05/15 06:37:17;;;;;;;2.97;2.17;;;;;;;;;;5023580;28;20485;-77
2023/05/15 06:39:43;;;;;;;2.67;1.90;;;;;;;;;;5022187;28;20097;-77
2023/05/15 06:42:09;;;;;;;3.45;2.33;;;;;;;;;;5024802;28;20109;-78
2023/05/15 06:44:35;;;;;;;3.00;2.40;;;;;;;;;;5022218;28;20180;-77
2023/05/15 06:47:01;;;;;;;4.65;2.20;;;;;;;;;;5023514;28;20021;-77
2023/05/15 06:49:27;;;;;;;5.25;2.40;;;;;;;;;;5020936;28;20035;-77
2023/05/15 06:51:56;;;;;;;3.25;2.13;;;;;;;;;;5021697;28;20435;-78
2023/05/15 06:54:22;;;;;;;2.75;2.17;;;;;;;;;;5022603;28;20617;-78
2023/05/15 06:56:48;;;;;;;3.97;2.13;;;;;;;;;;5018517;28;20113;-78
2023/05/15 06:59:14;;;;;;;6.95;2.55;;;;;;;;;;5022718;28;20032;-77
2023/05/15 07:01:40;;;;;;;4.95;2.30;;;;;;;;;;5004463;28;20037;-78
2023/05/15 07:04:06;;;;;;;5.10;2.30;;;;;;;;;;5023477;28;20064;-79
2023/05/15 07:06:32;;;;;;;3.00;1.90;;;;;;;;;;5021660;28;20512;-77
2023/05/15 07:08:58;;;;;;;2.53;2.10;;;;;;;;;;5021464;28;20146;-78
2023/05/15 07:11:24;;;;;;;3.47;2.53;;;;;;;;;;5018678;28;20032;-78
2023/05/15 07:13:52;;;;;;;3.20;1.98;;;;;;;;;;5020180;28;20060;-79
2023/05/15 07:16:18;;;;;;;3.53;2.08;;;;;;;;;;5020416;28;20025;-76
2023/05/15 07:18:44;;;;;;;3.53;2.30;;;;;;;;;;5022263;28;20044;-79
2023/05/15 07:21:10;;;;;;;3.33;2.30;;;;;;;;;;5021186;28;20031;-79
2023/05/15 07:23:36;;;;;;;4.85;2.55;;;;;;;;;;4994740;28;20092;-78
2023/05/15 07:26:02;;;;;;;3.72;2.30;;;;;;;;;;5000177;28;21325;-79
2023/05/15 07:28:28;;;;;;;4.60;2.42;;;;;;;;;;5018291;28;20018;-79
2023/05/15 07:30:54;;;;;;;5.65;2.72;;;;;;;;;;5013053;28;20409;-79
2023/05/15 07:33:20;;;;;;;3.92;2.15;;;;;;;;;;5011364;28;20091;-77
2023/05/15 07:35:46;;;;;;;3.10;2.50;;;;;;;;;;5016399;28;20044;-77
2023/05/15 07:38:12;;;;;;;5.40;2.45;;;;;;;;;;5019793;28;20025;-81
2023/05/15 07:40:38;;;;;;;7.72;2.38;;;;;;;;;;5016230;28;20408;-81
2023/05/15 07:43:04;;;;;;;3.28;2.25;;;;;;;;;;5017529;28;20408;-77
2023/05/15 07:45:30;;;;;;;3.47;2.40;;;;;;;;;;5013353;28;20029;-79
2023/05/15 07:47:57;;;;;;;6.30;2.80;;;;;;;;;;5000523;28;20033;-79
2023/05/15 07:50:23;;;;;;;2.97;2.50;;;;;;;;;;5019473;28;20041;-79
2023/05/15 07:52:49;;;;;;;2.90;2.20;;;;;;;;;;5021907;28;20256;-79
2023/05/15 07:55:15;;;;;;;5.13;2.33;;;;;;;;;;5005453;28;20467;-79
2023/05/15 07:57:41;;;;;;;3.35;2.50;;;;;;;;;;5025342;28;20112;-80
2023/05/15 08:00:10;;;;;;;3.08;2.58;;;;;;;;;;5007848;28;20033;-79
2023/05/15 08:02:36;;;;;;;2.50;2.20;;;;;;;;;;5023665;28;20064;-79
2023/05/15 08:05:03;;;;;;;3.08;2.33;;;;;;;;;;5025886;28;20076;-79
2023/05/15 08:07:31;;;;;;;3.83;2.63;;;;;;;;;;5025090;28;20060;-79
2023/05/15 08:09:57;;;;;;;3.00;2.25;;;;;;;;;;5026808;28;20009;-79
2023/05/15 08:12:23;;;;;;;5.93;2.50;;;;;;;;;;5027103;28;20565;-79
2023/05/15 08:14:53;;;;;;;3.58;2.50;;;;;;;;;;5026753;28;20465;-79
2023/05/15 08:17:20;;;;;;;2.38;2.17;;;;;;;;;;5024989;28;20116;-80
2023/05/15 08:19:46;;;;;;;4.47;2.30;;;;;;;;;;5025334;28;20084;-79
2023/05/15 08:22:12;;;;;;;3.13;2.50;;;;;;;;;;5026290;28;20033;-79
2023/05/15 08:24:38;;;;;;;3.40;2.40;;;;;;;;;;5022380;28;20038;-80
2023/05/15 08:27:05;;;;;;;2.85;2.45;;;;;;;;;;5022207;28;20032;-79
2023/05/15 08:29:31;;;;;;;3.40;2.53;;;;;;;;;;5025966;28;20109;-79
2023/05/15 08:31:57;;;;;;;5.45;2.45;;;;;;;;;;5006650;28;20537;-78
2023/05/15 08:34:23;;;;;;;3.60;2.28;;;;;;;;;;5025194;28;20033;-79
2023/05/15 08:36:49;;;;;;;2.95;2.45;;;;;;;;;;5025213;28;20041;-79
2023/05/15 08:39:15;;;;;;;3.55;2.47;;;;;;;;;;5023113;28;20029;-79
2023/05/15 08:41:52;;;;;;;2.97;2.22;;;;;;;;;;5024472;28;20030;-79
2023/05/15 08:44:18;;;;;;;4.03;2.63;;;;;;;;;;5025075;28;20398;-78
2023/05/15 08:46:45;;;;;;;4.78;2.30;;;;;;;;;;5007340;28;20022;-78
2023/05/15 08:49:18;;;;;;;3.00;2.30;;;;;;;;;;5025158;28;20495;-78
2023/05/15 08:51:44;;;;;;;4.05;2.55;;;;;;;;;;5024507;28;20068;-78
2023/05/15 08:54:10;;;;;;;5.70;2.97;;;;;;;;;;5026207;28;20496;-78
2023/05/15 08:56:37;;;;;;;3.40;2.22;;;;;;;;;;5025032;28;20120;-78
2023/05/15 08:59:03;;;;;;;4.95;2.38;;;;;;;;;;5020827;28;20025;-78
2023/05/15 09:01:29;;;;;;;3.33;2.35;;;;;;;;;;5023673;28;20037;-78
2023/05/15 09:03:55;;;;;;;4.55;2.75;;;;;;;;;;5025114;28;20037;-79
2023/05/15 09:06:22;;;;;;;5.22;2.50;;;;;;;;;;5025380;28;20037;-79
2023/05/15 09:08:49;;;;;;;4.60;2.33;;;;;;;;;;5023494;28;20052;-79
2023/05/15 09:11:15;;;;;;;3.25;2.47;;;;;;;;;;5024441;28;20622;-79
2023/05/15 09:13:41;;;;;;;4.65;2.42;;;;;;;;;;5024344;28;20076;-79
2023/05/15 09:16:07;;;;;;;3.45;2.45;;;;;;;;;;5026167;28;20033;-79
2023/05/15 09:18:33;;;;;;;3.85;1.98;;;;;;;;;;5022096;28;20028;-79
2023/05/15 09:21:18;;;;;;;2.78;2.17;;;;;;;;;;5023473;28;20034;-79
2023/05/15 09:23:44;;;;;;;4.50;2.75;;;;;;;;;;5020909;28;20038;-78
2023/05/15 09:26:11;;;;;;;4.72;2.58;;;;;;;;;;5025169;28;20392;-79
2023/05/15 09:28:38;;;;;;;6.22;2.55;;;;;;;;;;5006281;28;20064;-79
2023/05/15 09:31:05;;;;;;;3.38;2.22;;;;;;;;;;5024019;28;20084;-79
2023/05/15 09:33:35;;;;;;;4.35;2.30;;;;;;;;;;5023995;28;20025;-78
2023/05/15 09:36:01;;;;;;;3.50;2.27;;;;;;;;;;5024215;28;20061;-79
2023/05/15 09:38:27;;;;;;;2.70;2.30;;;;;;;;;;5024901;28;20033;-79
2023/05/15 09:41:06;;;;;;;2.85;2.13;;;;;;;;;;5023310;28;20021;-79
2023/05/15 09:43:39;;;;;;;3.78;2.10;;;;;;;;;;5018582;28;20029;-79
2023/05/15 09:46:05;;;;;;;3.80;2.28;;;;;;;;;;5021369;28;20061;-79
2023/05/15 09:48:31;;;;;;;6.68;2.40;;;;;;;;;;5007323;28;20055;-79
2023/05/15 09:50:58;;;;;;;2.97;2.22;;;;;;;;;;5024161;28;20033;-78
2023/05/15 09:53:24;;;;;;;3.47;2.55;;;;;;;;;;5023226;28;20107;-79
2023/05/15 09:55:50;;;;;;;7.45;2.25;;;;;;;;;;5025264;28;20038;-79
2023/05/15 09:58:17;;;;;;;3.03;2.28;;;;;;;;;;5022433;28;20033;-80
2023/05/15 10:00:44;;;;;;;5.68;2.40;;;;;;;;;;5022883;28;20071;-78
2023/05/15 10:03:11;;;;;;;3.25;2.03;;;;;;;;;;5021395;28;20484;-79
2023/05/15 10:05:38;;;;;;;7.47;2.67;;;;;;;;;;5023766;28;20045;-79
2023/05/15 10:08:04;;;;;;;3.60;2.63;;;;;;;;;;5023929;28;20025;-79
2023/05/15 10:10:30;;;;;;;3.40;2.22;;;;;;;;;;5021741;28;20044;-79
2023/05/15 10:12:58;;;;;;;5.38;2.10;;;;;;;;;;5023547;28;20025;-80
2023/05/15 10:15:25;;;;;;;3.30;2.33;;;;;;;;;;5023751;28;20080;-80
2023/05/15 10:17:52;;;;;;;3.60;2.22;;;;;;;;;;5023547;28;20029;-80
2023/05/15 10:20:19;;;;;;;3.47;1.92;;;;;;;;;;5023235;28;20132;-78
2023/05/15 10:22:46;;;;;;;3.58;2.28;;;;;;;;;;5024654;28;20040;-79
2023/05/15 10:25:12;;;;;;;5.43;2.15;;;;;;;;;;5021326;28;20036;-78
2023/05/15 10:27:38;;;;;;;3.25;2.30;;;;;;;;;;5021412;28;20037;-79
2023/05/15 10:30:05;;;;;;;5.50;2.63;;;;;;;;;;5023822;28;20071;-79
2023/05/15 10:32:32;;;;;;;2.00;1.88;;;;;;;;;;5024445;28;20037;-78
2023/05/15 10:34:58;;;;;;;5.07;2.53;;;;;;;;;;5024280;28;20063;-79
2023/05/15 10:37:26;;;;;;;2.53;1.98;;;;;;;;;;5021655;28;20030;-79
2023/05/15 10:39:54;;;;;;;4.63;2.67;;;;;;;;;;5020459;28;20080;-79
2023/05/15 10:42:20;;;;;;;4.75;1.92;;;;;;;;;;5021444;28;20036;-77
2023/05/15 10:44:47;;;;;;;4.65;2.50;;;;;;;;;;5027069;28;20037;-80
2023/05/15 10:47:13;;;;;;;4.72;2.63;;;;;;;;;;5025087;28;20622;-77
2023/05/15 10:49:39;;;;;;;2.17;1.75;;;;;;;;;;5020440;28;20033;-79
2023/05/15 10:52:06;;;;;;;3.78;2.05;;;;;;;;;;5034288;28;20037;-78
2023/05/15 10:54:32;;;;;;;3.60;2.03;;;;;;;;;;5037002;28;20079;-79
2023/05/15 10:56:58;;;;;;;3.58;2.50;;;;;;;;;;5027430;28;20022;-79
2023/05/15 10:59:31;;;;;;;5.07;2.60;;;;;;;;;;5023618;28;20599;-83
2023/05/15 11:01:57;;;;;;;3.17;2.13;;;;;;;;;;5028866;28;20033;-82
2023/05/15 11:04:25;;;;;;;4.80;3.72;;;;;;;;;;5038386;28;20045;-83
2023/05/15 11:07:10;;;;;;;6.40;3.13;;;;;;;;;;5036326;28;20028;-84
2023/05/15 11:09:37;;;;;;;7.57;3.28;;;;;;;;;;5036869;28;20026;-82
2023/05/15 11:12:04;;;;;;;7.65;3.80;;;;;;;;;;5034834;28;20021;-84
2023/05/15 11:14:31;;;;;;;8.77;4.43;;;;;;;;;;5034156;28;20696;-84
2023/05/15 11:16:58;;;;;;;11.15;4.40;;;;;;;;;;5046246;28;20048;-84
2023/05/15 11:19:37;;;;;;;7.07;4.20;;;;;;;;;;5027908;28;20150;-83
2023/05/15 11:22:15;;;;;;;8.93;4.20;;;;;;;;;;5016918;28;20026;-84
2023/05/15 11:24:52;;;;;;;6.93;3.58;;;;;;;;;;5015266;28;20036;-84
2023/05/15 11:27:19;;;;;;;9.18;4.57;;;;;;;;;;5027373;28;20025;-83
2023/05/15 11:30:04;;;;;;;8.10;4.10;;;;;;;;;;5028452;28;20025;-82
2023/05/15 11:32:43;;;;;;;7.90;3.30;;;;;;;;;;5040186;28;20037;-83
2023/05/15 11:35:13;;;;;;;7.03;3.55;;;;;;;;;;5033854;28;20021;-82
2023/05/15 11:37:43;;;;;;;6.43;3.33;;;;;;;;;;5040667;28;20098;-84
2023/05/15 11:40:13;;;;;;;4.25;2.90;;;;;;;;;;5031514;28;20106;-84
2023/05/15 11:42:39;;;;;;;5.78;3.13;;;;;;;;;;5011297;28;20061;-84
2023/05/15 11:45:07;;;;;;;4.55;2.90;;;;;;;;;;5033949;28;20446;-85
2023/05/15 11:47:33;;;;;;;4.22;2.70;;;;;;;;;;5039896;28;20087;-83
2023/05/15 11:49:59;;;;;;;4.05;2.97;;;;;;;;;;5031396;28;20034;-83
2023/05/15 11:52:30;;;;;;;6.25;3.30;;;;;;;;;;5013670;28;20391;-82
2023/05/15 11:54:56;;;;;;;;;;;;;;;;;;5036295;28;20369;-83
2023/05/15 11:57:23;;;;;;;4.53;3.17;;;;;;;;;;5038725;28;20287;-82
2023/05/15 11:59:53;;;;;;;3.92;2.97;;;;;;;;;;5031166;28;20029;-82
2023/05/15 12:02:19;;;;;;;6.28;3.05;;;;;;;;;;5030921;28;20075;-83
2023/05/15 12:04:48;;;;;;;8.40;3.47;;;;;;;;;;5033896;28;20139;-83
2023/05/15 12:07:15;;;;;;;3.90;3.00;;;;;;;;;;5037886;28;20022;-82
2023/05/15 12:09:41;;;;;;;7.50;3.97;;;;;;;;;;5033696;28;20464;-82
2023/05/15 12:12:12;;;;;;;5.70;3.55;;;;;;;;;;5037424;28;20538;-83
2023/05/15 12:14:40;;;;;;;4.65;3.15;;;;;;;;;;5023112;28;20030;-82
2023/05/15 12:17:06;;;;;;;5.30;3.45;;;;;;;;;;5036690;28;20028;-82
2023/05/15 12:19:33;;;;;;;5.28;3.08;;;;;;;;;;5030271;28;20029;-81
2023/05/15 12:21:59;;;;;;;4.90;3.00;;;;;;;;;;5034254;28;20124;-81
2023/05/15 12:24:26;;;;;;;5.65;3.80;;;;;;;;;;5029796;28;20037;-81
2023/05/15 12:26:52;;;;;;;5.05;3.35;;;;;;;;;;5017705;28;20539;-81
2023/05/15 12:29:18;;;;;;;5.45;3.40;;;;;;;;;;5030642;28;20040;-82
2023/05/15 12:31:44;;;;;;;4.32;3.20;;;;;;;;;;5039634;28;20041;-81
2023/05/15 12:34:10;;;;;;;4.90;3.25;;;;;;;;;;5045294;28;20029;-82
2023/05/15 12:36:36;;;;;;;4.57;2.67;;;;;;;;;;5045679;28;20029;-82
2023/05/15 12:39:06;;;;;;;5.00;3.13;;;;;;;;;;5034805;28;20025;-82
2023/05/15 12:41:32;;;;;;;4.90;3.13;;;;;;;;;;5031898;28;20033;-82
2023/05/15 12:43:59;;;;;;;4.47;3.03;;;;;;;;;;5042144;28;20029;-80
2023/05/15 12:46:25;;;;;;;3.00;2.70;;;;;;;;;;5016326;28;20056;-82
2023/05/15 12:48:51;;;;;;;4.65;2.75;;;;;;;;;;5034300;28;20021;-81
2023/05/15 12:51:17;;;;;;;5.85;2.60;;;;;;;;;;5034564;28;20254;-82
2023/05/15 12:53:46;;;;;;;5.75;3.33;;;;;;;;;;5029760;28;20087;-82
2023/05/15 12:56:15;;;;;;;3.05;2.40;;;;;;;;;;5029730;28;20029;-82
2023/05/15 12:58:41;;;;;;;3.55;2.65;;;;;;;;;;5039643;28;20459;-81
2023/05/15 13:01:07;;;;;;;4.32;2.60;;;;;;;;;;5041019;28;20483;-81
2023/05/15 13:03:33;;;;;;;5.40;3.10;;;;;;;;;;5029567;28;20025;-81
2023/05/15 13:06:02;;;;;;;5.40;2.90;;;;;;;;;;5043327;28;20039;-81
2023/05/15 13:08:28;;;;;;;3.67;2.63;;;;;;;;;;5032421;28;20036;-82
2023/05/15 13:10:57;;;;;;;4.60;3.00;;;;;;;;;;5036488;28;20029;-81
2023/05/15 13:13:23;;;;;;;5.05;3.00;;;;;;;;;;5029492;28;20041;-81
2023/05/15 13:15:49;;;;;;;2.90;2.38;;;;;;;;;;5031941;28;20518;-82
2023/05/15 13:18:16;;;;;;;5.70;2.45;;;;;;;;;;5019289;28;20120;-81
2023/05/15 13:20:47;;;;;;;4.22;2.95;;;;;;;;;;5029464;28;20030;-81
2023/05/15 13:23:14;;;;;;;4.20;2.63;;;;;;;;;;5011217;28;20029;-82
2023/05/15 13:25:41;;;;;;;2.97;2.33;;;;;;;;;;5029734;28;20291;-81
2023/05/15 13:28:09;;;;;;;4.20;2.80;;;;;;;;;;5031217;28;20041;-81
2023/05/15 13:30:37;;;;;;;3.92;2.65;;;;;;;;;;5029237;28;20499;-84
2023/05/15 13:33:03;;;;;;;4.53;2.95;;;;;;;;;;5027237;28;20029;-84
2023/05/15 13:35:29;;;;;;;3.95;2.85;;;;;;;;;;5029481;28;20029;-80
2023/05/15 13:37:56;;;;;;;4.72;2.70;;;;;;;;;;5025313;28;20607;-79
2023/05/15 13:40:22;;;;;;;5.00;2.97;;;;;;;;;;5038097;28;20025;-83
2023/05/15 13:42:49;;;;;;;5.57;3.15;;;;;;;;;;5027359;28;20568;-85
2023/05/15 13:45:15;;;;;;;6.72;3.20;;;;;;;;;;5011684;28;20029;-82
2023/05/15 13:47:42;;;;;;;5.43;3.40;;;;;;;;;;5028752;28;20056;-80
2023/05/15 13:50:09;;;;;;;4.00;2.70;;;;;;;;;;5028110;28;20010;-80
2023/05/15 13:52:35;;;;;;;5.88;2.78;;;;;;;;;;5027570;28;20103;-79
2023/05/15 13:55:03;;;;;;;3.80;2.20;;;;;;;;;;5026488;28;20030;-83
2023/05/15 13:57:29;;;;;;;4.63;2.47;;;;;;;;;;5023957;28;20017;-82
2023/05/15 13:59:55;;;;;;;5.18;3.13;;;;;;;;;;5012977;28;20369;-83
2023/05/15 14:02:25;;;;;;;4.50;2.58;;;;;;;;;;5027471;28;20025;-83
2023/05/15 14:04:51;;;;;;;3.13;2.17;;;;;;;;;;5030212;28;20404;-83
2023/05/15 14:07:17;;;;;;;3.15;1.90;;;;;;;;;;5024007;28;20029;-83
2023/05/15 14:09:43;;;;;;;2.67;2.00;;;;;;;;;;5025670;28;20025;-84
2023/05/15 14:12:10;;;;;;;5.93;2.10;;;;;;;;;;5023946;28;20044;-85
2023/05/15 14:14:39;;;;;;;5.07;2.08;;;;;;;;;;5027365;28;20403;-84
2023/05/15 14:17:10;;;;;;;2.03;1.63;;;;;;;;;;5025636;28;20029;-85
2023/05/15 14:19:36;;;;;;;;;;;;;;;;;;5030247;28;20044;-83
2023/05/15 14:22:02;;;;;;;3.15;2.00;;;;;;;;;;5018135;28;19997;-83
2023/05/15 14:24:28;;;;;;;4.72;2.15;;;;;;;;;;5024975;28;20116;-84
2023/05/15 14:26:54;;;;;;;3.53;1.65;;;;;;;;;;5023057;28;20026;-83
2023/05/15 14:29:20;;;;;;;3.08;1.88;;;;;;;;;;5028208;28;20100;-85
2023/05/15 14:31:46;;;;;;;3.85;2.58;;;;;;;;;;5004106;28;20022;-83
2023/05/15 14:34:12;;;;;;;3.42;2.45;;;;;;;;;;5027450;28;20040;-81
2023/05/15 14:36:38;;;;;;;3.22;2.03;;;;;;;;;;5031005;28;20027;-81
2023/05/15 14:39:05;;;;;;;3.65;2.28;;;;;;;;;;5035956;28;20040;-78
2023/05/15 14:41:31;;;;;;;4.68;2.45;;;;;;;;;;5031476;28;20022;-83
2023/05/15 14:43:57;;;;;;;3.80;2.55;;;;;;;;;;5033011;28;20037;-74